Reklama

Seznam meteostanic a jejich METAR

Vyhledat místa podle abecedy:
A B C D E F G H I J K L M N O P Q R S T U V W X Y Z

Filtrovat:

ID stanice:
a/nebo
Název místa (fulltext):
 
Místo (ID)Naposledy načteno 
Temelín (Temelin) 19.11.2018 00:00 UTC Zobrazit data
Místo: Temelín
Teplota: 0 °C (pocitová: -5.9 °C)
Vítr: 2 m/s z(e) 20°
Počasí: zataženo
Dohlednost: 15 km
Zákl. oblačnosti: 8/8 1800 m
Vlhkost: 87%
Tahiti (NTAA) 19.11.2018 00:00 UTC Zobrazit METAR
NTAA 190000Z 04004KT 010V070 9999 VCSH SCT020 SCT100 29/24 Q1011 NOSIG
Taipei (RCTP) 19.11.2018 00:00 UTC Zobrazit METAR
RCTP 190000Z 04014KT 8000 -RA SCT006 BKN009 BKN016 20/19 Q1020 NOSIG RMK A3013
Taipei (RCSS) 19.11.2018 00:00 UTC Zobrazit METAR
RCSS 190000Z 10004KT 080V140 9000 -RA FEW006 SCT025 BKN045 21/20 Q1020 NOSIG RMK A3012 RA AMT 0.4MM
Tallinn (EETN) 18.11.2018 23:50 UTC Zobrazit METAR
EETN 182350Z 08006KT 9999 OVC039 02/00 Q1036 R08/290195
Tampere (EFTP) 18.11.2018 23:50 UTC Zobrazit METAR
EFTP 182350Z AUTO 03007KT 9999 OVC023 M01/M05 Q1039
Tarawa I (NGTA) 19.11.2018 00:00 UTC Zobrazit METAR
NGTA 190000Z 11010KT 9999 SCT020 BKN300 32/25 Q1007
Targu Mures (LRTM) 19.11.2018 00:00 UTC Zobrazit METAR
LRTM 190000Z AUTO 09003KT 4700 -RA FEW033/// 01/00 Q1016
Tartu (EETU) 18.11.2018 23:50 UTC Zobrazit METAR
EETU 182350Z 04007KT 360V070 9999 SCT024 02/M02 Q1034
Tashkent (UTTT) 19.11.2018 00:00 UTC Zobrazit METAR
UTTT 190000Z 07004KT CAVOK 02/M06 Q1023 R08R/CLRD70 NOSIG
Tbilisi (UGGG) Zatím nenačteno  
Tegucigalpa (MHTG) 18.11.2018 22:00 UTC Zobrazit METAR
MHTG 182200Z 36008KT 9999 BKN030 23/17 Q1017 A3003 NOSIG
Tehran (OIII) 19.11.2018 00:00 UTC Zobrazit METAR
OIII 190000Z 00000KT 6000 NSC 08/02 Q1020 A3012 NOSIG
Tel Aviv (LLBG) 18.11.2018 23:50 UTC Zobrazit METAR
LLBG 182350Z 28008KT CAVOK 18/13 Q1014 NOSIG
Tenerife (GCTS) 19.11.2018 00:00 UTC Zobrazit METAR
GCTS 190000Z 02006KT 9999 FEW060 18/14 Q1013 NOSIG
Thessaloniki (LGTS) 18.11.2018 23:50 UTC Zobrazit METAR
LGTS 182350Z 32014KT 9999 SCT006 BKN020 09/07 Q1009 NOSIG
Thule (BGTL) 18.11.2018 23:56 UTC Zobrazit METAR
BGTL 182356Z AUTO 13005KT 9999 BKN041 BKN055 M21/M22 A2996 RMK AO2 SLP136 T12101223 11176 21232 52023 TSNO CHINO RWY26 $
Timisoara (LRTR) 19.11.2018 00:00 UTC Zobrazit METAR
LRTR 190000Z 05008KT 6000 RA BKN019 OVC033 02/02 Q1015 R11/290095
Tirana (LATI) 18.11.2018 23:50 UTC Zobrazit METAR
LATI 182350Z VRB02KT 9999 OVC050 10/07 Q1009 NOSIG
Tokyo (RJTT) 19.11.2018 00:00 UTC Zobrazit METAR
RJTT 190000Z 34005KT 310V020 9999 FEW010 SCT015 BKN080 14/11 Q1014 NOSIG RMK 1CU010 4SC015 7AC080 A2996
Torp (ENTO) 18.11.2018 23:50 UTC Zobrazit METAR
ENTO 182350Z AUTO 04007KT 010V080 9999 OVC012/// 02/M00 Q1040
Toulouse (LFBO) 19.11.2018 00:00 UTC Zobrazit METAR
LFBO 190000Z AUTO 11009KT 080V140 CAVOK 10/04 Q1008 NOSIG
Tripoli (HLLT) 13.07.2014 03:50 UTC Zobrazit METAR
HLLT 130350Z 11009KT CAVOK 24/15 Q1015
Trondheim (ENVA) 18.11.2018 23:50 UTC Zobrazit METAR
ENVA 182350Z 08005KT CAVOK M03/M03 Q1041 RMK WIND 670FT 09006KT
Tunis (DTTA) 18.11.2018 23:00 UTC Zobrazit METAR
DTTA 182300Z VRB02KT 9999 SCT023 16/12 Q1008 NOSIG
Turku (EFTU) 18.11.2018 23:50 UTC Zobrazit METAR
EFTU 182350Z AUTO 05003KT 9999 OVC024/// M00/M03 Q1039
Reklama

Počasí na Váš email

Emaily jsou bez reklamy a bez spamu



Odhlásit newsletter

Reklama


Lunární kalendář

  • 23.11.
  • 30.11.
  • 07.12.
  • 15.12.



Reklama


Reklama
Povinné ručení
Reklama



Reklama